Time;durP1;ratioP1;P1;durP2;ratioP2;P2;SDS_P1;SDS_P2;PMS_P1;PMS_P2;Temp;Humidity;BMP_temperature;BMP_pressure;BME280_temperature;BME280_humidity;BME280_pressure;Samples;Min_cycle;Max_cycle;Signal;HPM_P1;HPM_P2
2022/03/17 00:01:26;;;;;;;22.98;13.65;;;12.80;66.80;;;;;;5115364;28;20109;-67
2022/03/17 00:03:52;;;;;;;25.77;13.57;;;12.80;67.00;;;;;;5115340;28;20028;-67
2022/03/17 00:06:17;;;;;;;23.27;13.63;;;12.70;66.80;;;;;;5114831;28;20107;-67
2022/03/17 00:08:43;;;;;;;24.65;13.50;;;12.70;67.00;;;;;;5115038;28;20063;-67
2022/03/17 00:11:08;;;;;;;23.27;12.55;;;12.70;67.10;;;;;;5115228;28;20029;-67
2022/03/17 00:13:34;;;;;;;21.63;13.02;;;12.70;67.30;;;;;;5115085;28;20119;-67
2022/03/17 00:16:00;;;;;;;21.45;13.10;;;12.70;68.20;;;;;;5115119;28;20020;-67
2022/03/17 00:18:25;;;;;;;26.42;13.98;;;12.70;67.40;;;;;;5115066;28;20055;-68
2022/03/17 00:20:51;;;;;;;23.55;12.82;;;12.60;67.70;;;;;;5115014;28;20028;-67
2022/03/17 00:23:17;;;;;;;28.73;14.23;;;12.60;67.80;;;;;;5114923;28;20024;-67
2022/03/17 00:25:42;;;;;;;25.65;13.48;;;12.60;67.90;;;;;;5114861;28;20063;-67
2022/03/17 00:28:09;;;;;;;23.08;13.75;;;12.60;67.80;;;;;;5114842;28;20023;-67
2022/03/17 00:30:34;;;;;;;26.02;14.32;;;12.60;67.70;;;;;;5096996;28;20096;-67
2022/03/17 00:33:01;;;;;;;23.15;13.50;;;12.60;67.70;;;;;;5114790;28;20028;-67
2022/03/17 00:35:35;;;;;;;24.90;13.30;;;12.60;67.70;;;;;;5114716;28;20028;-67
2022/03/17 00:38:08;;;;;;;22.95;13.05;;;12.60;67.50;;;;;;5114782;28;20024;-67
2022/03/17 00:40:37;;;;;;;;;;;12.60;67.60;;;;;;5115026;28;20030;-67
2022/03/17 00:43:04;;;;;;;27.40;15.38;;;12.60;67.80;;;;;;5114722;28;19915;-67
2022/03/17 00:45:30;;;;;;;24.15;13.38;;;12.60;67.70;;;;;;5114539;28;20024;-67
2022/03/17 00:47:55;;;;;;;24.13;13.77;;;12.50;67.80;;;;;;5096629;28;20028;-67
2022/03/17 00:50:23;;;;;;;26.17;15.25;;;12.50;67.90;;;;;;5114414;28;20036;-67
2022/03/17 00:52:49;;;;;;;23.35;13.45;;;12.60;68.00;;;;;;5114394;28;20382;-67
2022/03/17 00:55:15;;;;;;;27.35;15.25;;;12.50;67.90;;;;;;5114254;28;20028;-67
2022/03/17 00:57:41;;;;;;;28.95;14.50;;;12.60;67.90;;;;;;5114294;28;20016;-67
2022/03/17 01:00:14;;;;;;;25.52;14.40;;;12.60;68.70;;;;;;5114278;28;20047;-67
2022/03/17 01:02:41;;;;;;;25.90;14.95;;;12.60;67.80;;;;;;5114233;28;20024;-67
2022/03/17 01:05:07;;;;;;;26.58;14.48;;;12.50;67.90;;;;;;5114167;28;20091;-67
2022/03/17 01:07:33;;;;;;;28.08;13.90;;;12.60;67.90;;;;;;5114131;28;20028;-67
2022/03/17 01:09:59;;;;;;;28.17;14.93;;;12.50;68.20;;;;;;5113985;28;20062;-67
2022/03/17 01:12:24;;;;;;;26.27;15.77;;;12.40;68.70;;;;;;5114052;28;20455;-67
2022/03/17 01:14:50;;;;;;;26.63;14.68;;;12.40;68.80;;;;;;5113942;28;20039;-67
2022/03/17 01:17:16;;;;;;;25.13;14.57;;;12.30;69.00;;;;;;5113810;28;20032;-67
2022/03/17 01:19:41;;;;;;;25.90;15.20;;;12.40;68.80;;;;;;5113314;28;20032;-67
2022/03/17 01:22:07;;;;;;;28.88;15.93;;;12.40;69.30;;;;;;5113865;28;20070;-67
2022/03/17 01:24:33;;;;;;;29.52;15.25;;;12.40;69.30;;;;;;5113787;28;20035;-67
2022/03/17 01:26:59;;;;;;;26.65;14.20;;;12.40;69.10;;;;;;5113820;28;20059;-67
2022/03/17 01:29:26;;;;;;;27.33;15.13;;;12.30;69.20;;;;;;5113750;28;20036;-67
2022/03/17 01:31:52;;;;;;;27.05;15.27;;;12.40;69.40;;;;;;5113734;28;20020;-68
2022/03/17 01:34:18;;;;;;;27.65;14.70;;;12.40;69.50;;;;;;5113615;28;20043;-67
2022/03/17 01:36:44;;;;;;;28.42;15.60;;;12.30;69.60;;;;;;5095748;28;20035;-67
2022/03/17 01:39:09;;;;;;;26.58;14.32;;;12.30;69.70;;;;;;5113741;28;20024;-67
2022/03/17 01:41:35;;;;;;;26.67;14.80;;;12.30;69.70;;;;;;5113589;28;20107;-67
2022/03/17 01:44:01;;;;;;;31.05;14.48;;;12.30;69.80;;;;;;5113583;28;20020;-67
2022/03/17 01:46:27;;;;;;;30.02;16.55;;;12.30;69.70;;;;;;5113541;28;20050;-67
2022/03/17 01:48:53;;;;;;;27.20;15.27;;;12.30;70.00;;;;;;5113508;28;20433;-67
2022/03/17 01:51:19;;;;;;;28.90;15.75;;;12.30;70.00;;;;;;5113482;28;20028;-68
2022/03/17 01:53:45;;;;;;;30.35;16.98;;;12.30;69.90;;;;;;5113370;28;20024;-68
2022/03/17 01:56:10;;;;;;;29.38;15.15;;;12.30;70.10;;;;;;5113389;28;20127;-67
2022/03/17 01:58:36;;;;;;;25.92;14.35;;;12.30;70.20;;;;;;5113390;28;20079;-67
2022/03/17 02:01:03;;;;;;;28.98;15.52;;;12.20;70.30;;;;;;5113349;28;20027;-67
2022/03/17 02:03:28;;;;;;;27.17;14.43;;;12.20;70.50;;;;;;5113331;28;20055;-67
2022/03/17 02:05:54;;;;;;;28.00;16.05;;;12.20;70.50;;;;;;5113305;28;20054;-68
2022/03/17 02:08:20;;;;;;;25.20;14.07;;;12.20;70.70;;;;;;5113270;28;20075;-68
2022/03/17 02:13:30;;;;;;;26.15;14.05;;;12.30;70.90;;;;;;5113282;28;20043;-68
2022/03/17 02:15:56;;;;;;;26.40;13.75;;;12.30;70.80;;;;;;5113217;28;20028;-68
2022/03/17 02:18:23;;;;;;;27.17;13.27;;;12.20;71.10;;;;;;5113230;28;20019;-68
2022/03/17 02:20:49;;;;;;;25.55;14.02;;;12.20;71.60;;;;;;5113214;28;20024;-67
2022/03/17 02:26:04;;;;;;;28.52;15.95;;;12.20;71.80;;;;;;5113172;28;20035;-68
2022/03/17 02:28:32;;;;;;;28.00;14.25;;;12.30;71.90;;;;;;5113284;28;20024;-68
2022/03/17 02:30:59;;;;;;;27.70;13.80;;;12.20;72.10;;;;;;5116615;28;20028;-67
2022/03/17 02:33:26;;;;;;;23.92;12.35;;;12.30;72.40;;;;;;5117022;28;20023;-67
2022/03/17 02:35:53;;;;;;;26.90;14.50;;;12.30;73.20;;;;;;5117052;28;20030;-67
2022/03/17 02:38:20;;;;;;;26.33;14.75;;;12.30;72.60;;;;;;5117008;28;20016;-67
2022/03/17 02:40:50;;;;;;;27.40;13.85;;;12.30;72.50;;;;;;5116959;28;20031;-67
2022/03/17 02:43:16;;;;;;;25.17;13.27;;;12.30;72.40;;;;;;5116914;28;20012;-67
2022/03/17 02:45:43;;;;;;;25.80;13.43;;;12.30;72.60;;;;;;5116902;28;20053;-67
2022/03/17 02:48:10;;;;;;;26.98;14.13;;;12.30;73.10;;;;;;5116805;28;20448;-67
2022/03/17 02:50:35;;;;;;;23.95;12.27;;;12.30;73.50;;;;;;5116774;28;20028;-68
2022/03/17 02:53:05;;;;;;;23.20;12.75;;;12.30;73.70;;;;;;5116626;28;20039;-67
2022/03/17 02:55:36;;;;;;;28.65;13.60;;;12.30;74.20;;;;;;5116527;28;20059;-68
2022/03/17 02:58:03;;;;;;;28.23;14.23;;;12.30;75.20;;;;;;5098627;28;20099;-67
2022/03/17 03:00:29;;;;;;;34.03;14.05;;;12.30;75.60;;;;;;5116595;28;20027;-67
2022/03/17 03:02:54;;;;;;;29.75;13.98;;;12.30;75.60;;;;;;5116524;28;20092;-67
2022/03/17 03:05:21;;;;;;;33.15;15.15;;;12.30;76.70;;;;;;5116500;28;20036;-67
2022/03/17 03:07:47;;;;;;;28.08;15.27;;;12.30;76.90;;;;;;5116461;28;20087;-67
2022/03/17 03:10:13;;;;;;;26.85;13.85;;;12.30;77.00;;;;;;5116318;28;20059;-67
2022/03/17 03:12:38;;;;;;;26.88;14.50;;;12.30;77.40;;;;;;5116367;28;20024;-67
2022/03/17 03:15:04;;;;;;;28.35;14.10;;;12.30;77.70;;;;;;5116220;28;20044;-67
2022/03/17 03:17:30;;;;;;;32.53;15.10;;;12.30;77.70;;;;;;5116257;28;20050;-67
2022/03/17 03:19:55;;;;;;;31.13;14.55;;;12.20;78.60;;;;;;5116213;28;20032;-67
2022/03/17 03:22:21;;;;;;;27.08;15.18;;;12.20;79.80;;;;;;5116286;28;20028;-67
2022/03/17 03:24:47;;;;;;;32.05;15.05;;;12.20;79.90;;;;;;5116103;28;20036;-67
2022/03/17 03:27:13;;;;;;;31.27;15.82;;;12.20;80.50;;;;;;5116101;28;20092;-68
2022/03/17 03:29:39;;;;;;;29.90;14.80;;;12.20;81.00;;;;;;5116057;28;20027;-68
2022/03/17 03:32:05;;;;;;;33.60;15.18;;;12.20;82.10;;;;;;5115998;28;20036;-68
2022/03/17 03:34:32;;;;;;;34.75;17.20;;;12.20;81.90;;;;;;5115803;28;20484;-68
2022/03/17 03:39:43;;;;;;;32.15;16.23;;;12.20;81.80;;;;;;5116115;28;20054;-67
2022/03/17 03:42:10;;;;;;;29.63;17.55;;;12.20;82.00;;;;;;5114916;28;20032;-68
2022/03/17 03:44:37;;;;;;;32.92;16.58;;;12.20;82.10;;;;;;5115728;28;20031;-67
2022/03/17 03:47:04;;;;;;;34.80;15.68;;;12.20;82.70;;;;;;5115699;28;20035;-68
2022/03/17 03:49:30;;;;;;;20.52;11.48;;;12.20;83.30;;;;;;5115806;28;20044;-68
2022/03/17 03:51:56;;;;;;;14.25;8.88;;;12.10;82.80;;;;;;5115621;28;20077;-67
2022/03/17 03:54:22;;;;;;;15.18;8.68;;;12.10;82.60;;;;;;5115504;28;20079;-67
2022/03/17 03:56:56;;;;;;;13.95;7.82;;;12.00;82.10;;;;;;5115534;28;20012;-67
2022/03/17 03:59:25;;;;;;;14.30;8.82;;;11.90;82.40;;;;;;5097580;28;20062;-67
2022/03/17 04:01:58;;;;;;;15.45;8.57;;;11.90;82.20;;;;;;5115361;28;20020;-67
2022/03/17 04:04:24;;;;;;;15.07;9.45;;;11.90;82.50;;;;;;5115424;28;20035;-67
2022/03/17 04:06:52;;;;;;;15.20;9.65;;;11.80;82.50;;;;;;5115317;28;20076;-67
2022/03/17 04:09:20;;;;;;;17.35;10.30;;;11.80;82.70;;;;;;5115113;28;20044;-68
2022/03/17 04:11:46;;;;;;;17.00;10.27;;;11.80;82.50;;;;;;5115178;28;20079;-67
2022/03/17 04:14:14;;;;;;;16.35;10.45;;;11.80;83.40;;;;;;5115117;28;20032;-67
2022/03/17 04:16:39;;;;;;;19.45;10.70;;;11.80;82.60;;;;;;5115142;28;20027;-67
2022/03/17 04:19:05;;;;;;;18.55;11.13;;;11.80;83.20;;;;;;5115059;28;20032;-67
2022/03/17 04:21:32;;;;;;;14.55;8.20;;;11.70;82.90;;;;;;5115018;28;20031;-67
2022/03/17 04:23:58;;;;;;;14.68;8.90;;;11.70;82.90;;;;;;5114871;28;20108;-67
2022/03/17 04:26:24;;;;;;;12.90;7.45;;;11.60;82.50;;;;;;5114949;28;20035;-67
2022/03/17 04:28:49;;;;;;;13.20;7.30;;;11.60;82.20;;;;;;5097044;28;20040;-68
2022/03/17 04:31:15;;;;;;;10.18;6.68;;;11.50;81.90;;;;;;5114805;28;20036;-68
2022/03/17 04:33:41;;;;;;;10.40;5.90;;;11.50;81.80;;;;;;5114727;28;20023;-67
2022/03/17 04:36:10;;;;;;;9.23;5.78;;;11.40;81.10;;;;;;5114734;28;20035;-68
2022/03/17 04:38:36;;;;;;;10.48;5.60;;;11.40;81.00;;;;;;5114844;28;20023;-68
2022/03/17 04:41:02;;;;;;;14.57;6.32;;;11.40;80.80;;;;;;5114671;28;20028;-67
2022/03/17 04:43:28;;;;;;;14.43;7.32;;;11.30;80.70;;;;;;5096628;28;20032;-67
2022/03/17 04:45:54;;;;;;;15.68;7.68;;;11.20;81.40;;;;;;5114591;28;20031;-67
2022/03/17 04:48:20;;;;;;;15.52;7.40;;;11.10;81.00;;;;;;5114523;28;20105;-68
2022/03/17 04:50:46;;;;;;;17.85;8.13;;;11.10;81.00;;;;;;5114465;28;20047;-67
2022/03/17 04:56:16;;;;;;;17.27;8.10;;;11.10;81.40;;;;;;5114491;28;20054;-68
2022/03/17 04:58:42;;;;;;;16.75;8.07;;;11.10;81.50;;;;;;5114392;28;20023;-68
2022/03/17 05:01:09;;;;;;;16.50;8.10;;;11.00;81.50;;;;;;5114285;28;20025;-68
2022/03/17 05:03:36;;;;;;;14.43;8.15;;;11.00;82.00;;;;;;5114218;28;20114;-68
2022/03/17 05:06:03;;;;;;;14.77;8.32;;;11.00;82.10;;;;;;5114309;28;20027;-68
2022/03/17 05:08:29;;;;;;;13.60;7.45;;;11.00;82.40;;;;;;5113864;28;20055;-67
2022/03/17 05:10:55;;;;;;;14.82;7.65;;;10.90;82.30;;;;;;5114076;28;20027;-68
2022/03/17 05:13:22;;;;;;;15.05;7.70;;;10.90;82.60;;;;;;5114054;28;20046;-68
2022/03/17 05:15:49;;;;;;;16.65;7.82;;;10.90;82.50;;;;;;5113895;28;20434;-67
2022/03/17 05:18:15;;;;;;;17.70;7.95;;;10.80;82.50;;;;;;5113960;28;20026;-67
2022/03/17 05:20:41;;;;;;;16.15;7.95;;;10.90;82.40;;;;;;5113926;28;20029;-67
2022/03/17 05:23:10;;;;;;;15.77;8.18;;;10.90;82.30;;;;;;5113885;28;20020;-68
2022/03/17 05:25:38;;;;;;;15.40;7.07;;;10.90;82.30;;;;;;5113772;28;20024;-67
2022/03/17 05:28:04;;;;;;;18.63;8.27;;;10.80;82.20;;;;;;5113818;28;20024;-67
2022/03/17 05:30:30;;;;;;;17.58;8.93;;;10.80;82.50;;;;;;5113810;28;20020;-68
2022/03/17 05:32:56;;;;;;;14.80;8.32;;;10.70;82.30;;;;;;5113731;28;20043;-67
2022/03/17 05:35:23;;;;;;;17.42;8.18;;;10.70;82.60;;;;;;5113620;28;20024;-67
2022/03/17 05:37:48;;;;;;;18.08;6.93;;;10.70;82.10;;;;;;5113673;28;20398;-68
2022/03/17 05:40:15;;;;;;;12.10;6.00;;;10.60;81.50;;;;;;5113646;28;20021;-67
2022/03/17 05:42:55;;;;;;;17.20;5.72;;;10.50;80.70;;;;;;5113574;28;20027;-67
2022/03/17 05:45:25;;;;;;;10.88;4.72;;;10.50;80.60;;;;;;5113615;28;20030;-68
2022/03/17 05:47:52;;;;;;;12.50;4.65;;;10.40;79.20;;;;;;5113578;28;20038;-68
2022/03/17 05:50:20;;;;;;;11.30;4.03;;;10.40;78.60;;;;;;5095792;28;20027;-68
2022/03/17 05:52:47;;;;;;;6.35;3.80;;;10.30;78.20;;;;;;5113617;28;20030;-68
2022/03/17 05:55:15;;;;;;;12.77;4.30;;;10.30;77.80;;;;;;5113403;28;20032;-68
2022/03/17 05:57:45;;;;;;;10.48;3.90;;;10.30;77.70;;;;;;5113495;28;20518;-68
2022/03/17 06:00:12;;;;;;;7.43;3.83;;;10.30;77.20;;;;;;5113375;28;20016;-68
2022/03/17 06:02:38;;;;;;;9.02;3.42;;;10.30;77.40;;;;;;5113496;28;20020;-67
2022/03/17 06:05:05;;;;;;;10.82;3.97;;;10.30;77.20;;;;;;5117504;28;20028;-68
2022/03/17 06:07:46;;;;;;;8.23;4.05;;;10.30;76.80;;;;;;5120053;28;20020;-67
2022/03/17 06:10:14;;;;;;;9.50;3.75;;;10.30;76.70;;;;;;5120034;28;20111;-68
2022/03/17 06:12:41;;;;;;;10.25;3.90;;;10.40;76.60;;;;;;5120039;28;20035;-68
2022/03/17 06:15:07;;;;;;;7.72;3.67;;;10.40;76.60;;;;;;5119956;28;20032;-68
2022/03/17 06:17:44;;;;;;;8.40;3.08;;;10.40;76.70;;;;;;5120015;28;20024;-68
2022/03/17 06:20:12;;;;;;;8.80;3.30;;;10.30;76.50;;;;;;5120037;28;20024;-68
2022/03/17 06:22:42;;;;;;;10.35;3.15;;;10.30;76.60;;;;;;5119519;28;20035;-68
2022/03/17 06:25:10;;;;;;;6.57;2.83;;;10.30;76.60;;;;;;5119916;28;20028;-68
2022/03/17 06:27:36;;;;;;;9.73;2.92;;;10.20;76.30;;;;;;5119909;28;20020;-68
2022/03/17 06:30:06;;;;;;;5.57;1.95;;;10.20;76.60;;;;;;5119914;28;20053;-65
2022/03/17 06:32:33;;;;;;;7.00;1.73;;;10.10;75.90;;;;;;5119875;28;20027;-65
2022/03/17 06:34:59;;;;;;;4.85;1.90;;;10.10;75.90;;;;;;5119811;28;20024;-65
2022/03/17 06:37:25;;;;;;;5.28;1.88;;;10.10;76.00;;;;;;5119838;28;20054;-65
2022/03/17 06:39:50;;;;;;;4.68;1.92;;;10.10;76.20;;;;;;5119823;28;20079;-65
2022/03/17 06:42:16;;;;;;;4.68;1.95;;;10.00;75.70;;;;;;5119791;28;20048;-65
2022/03/17 06:44:42;;;;;;;5.38;1.98;;;10.00;75.80;;;;;;5119770;28;20042;-66
2022/03/17 06:47:07;;;;;;;3.72;1.77;;;10.00;75.60;;;;;;5119720;28;20433;-65
2022/03/17 06:49:33;;;;;;;3.53;2.20;;;10.10;75.60;;;;;;5119685;28;20028;-65
2022/03/17 06:51:58;;;;;;;3.58;1.90;;;10.10;75.80;;;;;;5119659;28;20059;-65
2022/03/17 06:54:24;;;;;;;8.50;2.55;;;10.20;75.80;;;;;;5119629;28;20028;-65
2022/03/17 06:56:50;;;;;;;5.53;2.20;;;10.20;75.10;;;;;;5119672;28;20031;-65
2022/03/17 06:59:16;;;;;;;5.30;1.90;;;10.10;74.70;;;;;;5119566;28;20020;-65
2022/03/17 07:01:42;;;;;;;7.10;2.10;;;10.20;74.90;;;;;;5119533;28;20028;-65
2022/03/17 07:04:07;;;;;;;7.68;2.30;;;10.10;75.40;;;;;;5119548;28;20032;-65
2022/03/17 07:06:33;;;;;;;6.72;1.98;;;10.20;74.90;;;;;;5119586;28;20083;-67
2022/03/17 07:08:58;;;;;;;4.32;1.73;;;10.20;74.70;;;;;;5119257;28;20062;-65
2022/03/17 07:11:25;;;;;;;8.10;1.90;;;10.30;74.80;;;;;;5119458;28;20418;-65
2022/03/17 07:13:50;;;;;;;6.85;1.77;;;10.30;74.10;;;;;;5119441;28;20040;-67
2022/03/17 07:16:18;;;;;;;6.32;1.85;;;10.30;74.50;;;;;;5116512;28;20035;-65
2022/03/17 07:18:43;;;;;;;5.72;1.70;;;10.40;74.60;;;;;;5116312;28;20016;-65
2022/03/17 07:21:09;;;;;;;5.60;1.60;;;10.30;74.40;;;;;;5116239;28;20084;-65
2022/03/17 07:23:35;;;;;;;5.90;1.90;;;10.30;74.20;;;;;;5116178;28;20039;-65
2022/03/17 07:26:02;;;;;;;6.28;1.63;;;10.30;74.40;;;;;;5116033;28;20024;-65
2022/03/17 07:28:28;;;;;;;7.43;1.58;;;10.30;74.40;;;;;;5116101;28;20079;-65
2022/03/17 07:30:54;;;;;;;4.75;1.40;;;10.30;74.70;;;;;;5116054;28;20035;-65
2022/03/17 07:33:19;;;;;;;7.05;1.73;;;10.20;75.20;;;;;;5115962;28;20050;-65
2022/03/17 07:35:45;;;;;;;6.57;1.85;;;10.10;75.60;;;;;;5115869;28;20040;-67
2022/03/17 07:38:10;;;;;;;6.10;1.63;;;10.10;76.10;;;;;;5115857;28;20036;-65
2022/03/17 07:40:36;;;;;;;6.07;1.60;;;10.10;76.70;;;;;;5116010;28;20028;-65
2022/03/17 07:43:02;;;;;;;6.35;1.52;;;10.10;76.60;;;;;;5115832;28;20036;-65
2022/03/17 07:45:28;;;;;;;7.97;2.22;;;10.10;76.70;;;;;;5115809;28;20376;-65
2022/03/17 07:47:53;;;;;;;11.65;2.00;;;10.10;76.80;;;;;;5115678;28;20039;-65
2022/03/17 07:50:20;;;;;;;4.95;1.40;;;10.10;76.80;;;;;;5115766;28;20032;-65
2022/03/17 07:52:46;;;;;;;7.15;1.52;;;10.20;76.60;;;;;;5115632;28;20048;-65
2022/03/17 07:55:12;;;;;;;6.40;1.90;;;10.10;76.30;;;;;;5115498;28;20024;-65
2022/03/17 07:57:38;;;;;;;6.57;1.40;;;10.10;76.20;;;;;;5115480;28;20024;-65
2022/03/17 08:00:05;;;;;;;8.55;1.70;;;10.20;76.00;;;;;;5115457;28;20027;-66
2022/03/17 08:02:31;;;;;;;7.63;1.63;;;10.20;75.80;;;;;;5115427;28;20024;-65
2022/03/17 08:04:57;;;;;;;7.75;1.70;;;10.20;75.70;;;;;;5097677;28;20062;-66
2022/03/17 08:07:23;;;;;;;3.05;1.23;;;10.20;75.40;;;;;;5115348;28;20024;-66
2022/03/17 08:09:48;;;;;;;4.30;1.13;;;10.30;75.30;;;;;;5115035;28;20048;-66
2022/03/17 08:12:14;;;;;;;7.10;1.70;;;10.30;75.00;;;;;;5115348;28;20073;-65
2022/03/17 08:14:40;;;;;;;6.47;1.48;;;10.30;75.10;;;;;;5115233;28;20032;-66
2022/03/17 08:17:06;;;;;;;8.82;1.58;;;10.30;75.30;;;;;;5115061;28;20023;-66
2022/03/17 08:19:31;;;;;;;4.95;1.17;;;10.30;75.60;;;;;;5115111;28;20082;-65
2022/03/17 08:21:58;;;;;;;4.93;1.10;;;10.30;76.00;;;;;;5114980;28;20024;-66
2022/03/17 08:24:24;;;;;;;6.03;1.50;;;10.30;75.90;;;;;;5115084;28;20031;-66
2022/03/17 08:26:51;;;;;;;5.30;1.33;;;10.30;75.90;;;;;;5114681;28;20046;-66
2022/03/17 08:29:17;;;;;;;7.05;1.45;;;10.30;75.90;;;;;;5114907;28;20076;-65
2022/03/17 08:31:42;;;;;;;8.13;1.10;;;10.30;75.60;;;;;;5114864;28;20039;-66
2022/03/17 08:34:08;;;;;;;7.20;1.33;;;10.40;75.00;;;;;;5114728;28;20036;-66
2022/03/17 08:36:34;;;;;;;9.75;1.60;;;10.30;74.80;;;;;;5114761;28;20142;-65
2022/03/17 08:38:59;;;;;;;9.48;1.30;;;10.40;74.60;;;;;;5114684;28;20050;-65
2022/03/17 08:41:25;;;;;;;6.70;1.35;;;10.40;74.40;;;;;;5096792;28;20047;-66
2022/03/17 08:43:54;;;;;;;5.82;1.08;;;10.40;74.30;;;;;;5114609;28;20020;-65
2022/03/17 08:49:24;;;;;;;6.38;1.20;;;10.50;73.90;;;;;;5114637;28;20035;-66
2022/03/17 08:51:56;;;;;;;7.85;1.30;;;10.40;73.40;;;;;;5114463;28;20083;-66
2022/03/17 08:54:27;;;;;;;8.48;1.63;;;10.40;73.50;;;;;;5114534;28;20031;-66
2022/03/17 08:57:00;;;;;;;7.77;1.53;;;10.40;73.70;;;;;;5114514;28;20083;-66
2022/03/17 08:59:36;;;;;;;8.80;1.55;;;10.40;73.70;;;;;;5114442;28;20250;-66
2022/03/17 09:02:04;;;;;;;10.05;2.85;;;10.50;73.30;;;;;;5114324;28;20028;-66
2022/03/17 09:04:30;;;;;;;9.43;1.77;;;10.50;73.10;;;;;;5114250;28;20013;-65
2022/03/17 09:06:59;;;;;;;8.27;2.20;;;10.50;72.80;;;;;;5114159;28;20050;-66
2022/03/17 09:09:28;;;;;;;9.57;1.98;;;10.60;72.50;;;;;;5113959;28;20063;-66
2022/03/17 09:11:54;;;;;;;5.72;1.48;;;10.70;72.60;;;;;;5114141;28;20562;-66
2022/03/17 09:14:21;;;;;;;3.85;1.40;;;10.70;71.10;;;;;;5114024;28;20020;-66
2022/03/17 09:16:47;;;;;;;13.00;2.00;;;10.70;71.00;;;;;;5114019;28;20031;-66
2022/03/17 09:19:13;;;;;;;8.38;1.60;;;10.80;71.20;;;;;;5113979;28;20016;-65
2022/03/17 09:21:38;;;;;;;9.75;1.75;;;10.90;70.90;;;;;;5113903;28;20039;-66
2022/03/17 09:24:04;;;;;;;5.18;1.75;;;11.00;69.70;;;;;;5113933;28;20054;-66
2022/03/17 09:26:33;;;;;;;7.40;1.73;;;11.00;68.20;;;;;;5114001;28;20084;-66
2022/03/17 09:28:59;;;;;;;11.20;2.22;;;11.00;68.50;;;;;;5113820;28;20382;-66
2022/03/17 09:31:25;;;;;;;6.32;1.67;;;11.10;69.00;;;;;;5113798;28;20024;-65
2022/03/17 09:33:51;;;;;;;4.45;1.75;;;11.10;67.50;;;;;;5113667;28;20024;-66
2022/03/17 09:36:17;;;;;;;8.10;1.70;;;11.10;67.50;;;;;;5113691;28;20035;-66
2022/03/17 09:38:43;;;;;;;9.15;1.58;;;11.20;67.60;;;;;;5113114;28;20020;-65
2022/03/17 09:41:25;;;;;;;9.23;1.38;;;11.20;66.70;;;;;;5113480;28;20020;-65
2022/03/17 09:43:53;;;;;;;7.38;1.35;;;11.10;66.50;;;;;;5113683;28;20028;-66
2022/03/17 09:46:21;;;;;;;8.32;1.83;;;11.10;66.00;;;;;;5113547;28;20116;-65
2022/03/17 09:48:52;;;;;;;6.22;1.13;;;11.10;66.10;;;;;;5113663;28;20035;-66
2022/03/17 09:51:25;;;;;;;7.95;1.08;;;11.00;65.70;;;;;;5113496;28;20084;-66
2022/03/17 09:53:58;;;;;;;7.70;1.50;;;11.10;66.70;;;;;;5113457;28;20020;-66
2022/03/17 09:56:24;;;;;;;6.72;1.40;;;11.20;66.80;;;;;;5113643;28;20087;-66
2022/03/17 09:58:51;;;;;;;6.25;1.27;;;11.20;67.00;;;;;;5113532;28;20024;-65
2022/03/17 10:01:18;;;;;;;7.00;1.40;;;11.20;65.60;;;;;;5113404;28;20024;-65
2022/03/17 10:03:44;;;;;;;4.97;1.02;;;11.20;64.90;;;;;;5113361;28;20073;-66
2022/03/17 10:06:10;;;;;;;6.63;1.52;;;11.10;64.60;;;;;;5113364;28;20020;-66
2022/03/17 10:08:38;;;;;;;5.93;1.40;;;11.10;64.70;;;;;;5113141;28;20020;-66
2022/03/17 10:11:04;;;;;;;8.23;1.27;;;11.10;64.80;;;;;;5113353;28;20405;-65
2022/03/17 10:13:31;;;;;;;8.85;1.27;;;11.20;64.60;;;;;;5113252;28;20024;-65
2022/03/17 10:16:17;;;;;;;10.93;1.77;;;11.20;65.00;;;;;;5113263;28;20084;-65
2022/03/17 10:18:43;;;;;;;9.40;1.20;;;11.30;65.20;;;;;;5113215;28;20020;-66
2022/03/17 10:21:24;;;;;;;6.03;1.35;;;11.30;65.30;;;;;;5113188;28;20478;-65
2022/03/17 10:24:09;;;;;;;4.18;1.50;;;11.30;64.60;;;;;;5113154;28;20028;-66
2022/03/17 10:26:41;;;;;;;6.60;1.30;;;11.30;64.30;;;;;;5113325;28;20068;-66
2022/03/17 10:29:15;;;;;;;3.50;1.00;;;11.30;64.60;;;;;;5113267;28;20047;-66
2022/03/17 10:32:05;;;;;;;10.32;1.50;;;11.30;64.30;;;;;;5113129;28;20016;-66
2022/03/17 10:34:46;;;;;;;8.10;1.42;;;11.40;64.50;;;;;;5113080;28;20028;-66
2022/03/17 10:37:16;;;;;;;8.32;1.00;;;11.40;64.60;;;;;;5113051;28;20024;-66
2022/03/17 10:39:50;;;;;;;9.20;1.30;;;11.40;65.20;;;;;;5112799;28;20023;-66
2022/03/17 10:42:22;;;;;;;9.18;1.48;;;11.40;64.30;;;;;;5112874;28;20052;-66
2022/03/17 10:44:48;;;;;;;;;;;11.40;63.40;;;;;;5113434;28;20048;-66
2022/03/17 10:47:13;;;;;;;7.75;1.80;;;11.30;62.90;;;;;;5112979;28;19904;-66
2022/03/17 10:50:07;;;;;;;6.85;1.38;;;11.30;63.10;;;;;;5113053;28;20039;-66
2022/03/17 10:52:57;;;;;;;9.57;1.35;;;11.30;62.60;;;;;;5116859;28;20043;-66
2022/03/17 10:55:31;;;;;;;7.88;1.33;;;11.30;63.10;;;;;;5116707;28;20073;-66
2022/03/17 10:58:13;;;;;;;7.35;1.35;;;11.40;62.30;;;;;;5116833;28;20012;-66
2022/03/17 11:00:52;;;;;;;8.48;1.60;;;11.40;63.40;;;;;;5116671;28;20024;-65
2022/03/17 11:03:18;;;;;;;6.88;1.35;;;11.40;62.10;;;;;;5098655;28;20024;-66
2022/03/17 11:05:44;;;;;;;7.32;1.58;;;11.40;62.50;;;;;;5116547;28;20020;-66
2022/03/17 11:08:11;;;;;;;8.25;1.48;;;11.50;62.50;;;;;;5116459;28;20024;-65
2022/03/17 11:10:39;;;;;;;4.35;1.35;;;11.50;62.30;;;;;;5116359;28;20129;-66
2022/03/17 11:13:09;;;;;;;4.88;1.55;;;11.40;62.10;;;;;;5116431;28;20043;-66
2022/03/17 11:15:40;;;;;;;4.47;1.10;;;11.40;62.20;;;;;;5116349;28;20038;-66
2022/03/17 11:18:12;;;;;;;4.38;1.45;;;11.40;61.90;;;;;;5116435;28;20079;-66
2022/03/17 11:20:38;;;;;;;3.83;1.23;;;11.30;61.80;;;;;;5116290;28;20023;-66
2022/03/17 11:23:22;;;;;;;4.38;1.20;;;11.30;62.00;;;;;;5098248;28;20024;-66
2022/03/17 11:25:53;;;;;;;5.03;1.20;;;11.40;62.30;;;;;;5116144;28;20028;-66
2022/03/17 11:28:47;;;;;;;4.32;0.90;;;11.50;61.90;;;;;;5116113;28;20491;-66
2022/03/17 11:31:19;;;;;;;3.60;1.38;;;11.50;60.40;;;;;;5116118;28;20047;-66
2022/03/17 11:33:46;;;;;;;4.43;1.30;;;11.50;60.80;;;;;;5098091;28;20032;-66
2022/03/17 11:36:16;;;;;;;6.00;1.20;;;11.50;60.60;;;;;;5115981;28;20035;-66
2022/03/17 11:41:27;;;;;;;5.07;1.48;;;11.60;61.30;;;;;;5115884;28;20058;-66
2022/03/17 11:43:52;;;;;;;6.47;1.63;;;11.70;61.20;;;;;;5115804;28;20016;-66
2022/03/17 11:46:20;;;;;;;3.60;1.38;;;11.70;60.40;;;;;;5115730;28;20095;-66
2022/03/17 11:48:54;;;;;;;3.97;1.58;;;11.70;60.80;;;;;;5115728;28;20021;-67
2022/03/17 11:51:21;;;;;;;5.22;1.77;;;11.70;61.30;;;;;;5115696;28;20046;-66
2022/03/17 11:53:52;;;;;;;4.47;1.90;;;11.80;61.30;;;;;;5115474;28;20024;-66
2022/03/17 11:56:43;;;;;;;8.07;1.90;;;11.80;61.10;;;;;;5115623;28;20052;-66
2022/03/17 11:59:10;;;;;;;4.35;1.90;;;11.90;60.80;;;;;;5115637;28;20016;-66
2022/03/17 12:01:47;;;;;;;4.00;1.60;;;11.90;61.50;;;;;;5115110;28;20525;-66
2022/03/17 12:04:32;;;;;;;4.40;1.77;;;11.90;60.50;;;;;;5097362;28;20035;-66
2022/03/17 12:07:13;;;;;;;4.43;1.98;;;12.10;61.40;;;;;;5115406;28;20028;-66
2022/03/17 12:09:40;;;;;;;3.33;1.83;;;12.10;60.70;;;;;;5115173;28;20040;-66
2022/03/17 12:12:22;;;;;;;5.78;1.80;;;12.10;60.20;;;;;;5115265;28;20032;-66
2022/03/17 12:14:58;;;;;;;8.32;1.80;;;12.10;59.80;;;;;;5115232;28;20024;-66
2022/03/17 12:17:28;;;;;;;5.43;1.80;;;12.10;59.10;;;;;;5115289;28;20038;-66
2022/03/17 12:20:22;;;;;;;5.22;1.75;;;12.10;59.90;;;;;;5115141;28;20036;-66
2022/03/17 12:22:50;;;;;;;5.13;2.00;;;12.00;59.40;;;;;;5112498;28;20043;-66
2022/03/17 12:25:23;;;;;;;4.82;1.85;;;12.00;60.00;;;;;;5114911;28;20024;-66
2022/03/17 12:27:51;;;;;;;3.92;1.60;;;12.10;60.10;;;;;;5115139;28;20032;-65
2022/03/17 12:30:18;;;;;;;5.28;1.92;;;12.10;60.30;;;;;;5114927;28;20027;-66
2022/03/17 12:32:51;;;;;;;7.03;2.10;;;12.20;60.00;;;;;;5114903;28;20028;-66
2022/03/17 12:35:19;;;;;;;6.05;1.90;;;12.30;59.00;;;;;;5114791;28;20024;-66
2022/03/17 12:37:45;;;;;;;6.28;1.65;;;12.30;58.20;;;;;;5114818;28;20124;-65
2022/03/17 12:40:19;;;;;;;3.58;1.85;;;12.40;58.00;;;;;;5114735;28;20107;-65
2022/03/17 12:42:47;;;;;;;3.65;1.60;;;12.40;57.70;;;;;;5114728;28;20024;-66
2022/03/17 12:45:21;;;;;;;5.63;1.55;;;12.50;58.00;;;;;;5114683;28;20053;-66
2022/03/17 12:47:49;;;;;;;5.45;1.70;;;12.50;57.30;;;;;;5114760;28;20024;-66
2022/03/17 12:50:20;;;;;;;5.30;2.00;;;12.50;57.40;;;;;;5114494;28;20028;-66
2022/03/17 12:52:47;;;;;;;6.70;1.88;;;12.60;57.00;;;;;;5114510;28;20081;-65
2022/03/17 12:55:16;;;;;;;3.38;1.80;;;12.70;57.20;;;;;;5114378;28;20024;-66
2022/03/17 12:57:42;;;;;;;6.43;2.00;;;12.70;56.90;;;;;;5096523;28;20028;-65
2022/03/17 13:00:14;;;;;;;5.53;2.00;;;12.70;56.70;;;;;;5114301;28;20055;-66
2022/03/17 13:02:46;;;;;;;5.68;2.13;;;12.70;56.60;;;;;;5114369;28;20047;-65